createdAt,value
2019-01-28T00:00:38.347Z,15.97
2019-01-28T00:03:05.671Z,8.00
2019-01-28T00:05:33.007Z,13.87
2019-01-28T00:08:00.297Z,15.03
2019-01-28T00:10:27.635Z,16.60
2019-01-28T00:12:54.944Z,13.80
2019-01-28T00:15:22.243Z,14.03
2019-01-28T00:17:49.680Z,21.23
2019-01-28T00:20:16.993Z,17.57
2019-01-28T00:22:44.309Z,16.70
2019-01-28T00:25:11.647Z,18.27
2019-01-28T00:27:39.074Z,13.13
2019-01-28T00:30:06.772Z,18.47
2019-01-28T00:32:34.080Z,14.67
2019-01-28T00:35:01.458Z,12.67
2019-01-28T00:37:28.903Z,20.13
2019-01-28T00:39:56.272Z,16.97
2019-01-28T00:43:12.915Z,20.03
2019-01-28T00:45:41.235Z,26.33
2019-01-28T00:48:08.583Z,23.03
2019-01-28T00:50:35.891Z,20.53
2019-01-28T00:53:03.205Z,19.83
2019-01-28T00:55:30.533Z,17.57
2019-01-28T00:57:57.819Z,17.20
2019-01-28T01:00:25.122Z,16.63
2019-01-28T01:02:52.459Z,13.07
2019-01-28T01:05:19.782Z,6.97
2019-01-28T01:07:47.096Z,11.73
2019-01-28T01:10:14.431Z,11.33
2019-01-28T01:12:41.733Z,10.50
2019-01-28T01:15:10.983Z,16.33
2019-01-28T01:17:38.327Z,15.83
2019-01-28T01:20:06.050Z,15.37
2019-01-28T01:22:33.362Z,14.90
2019-01-28T01:25:00.675Z,16.90
2019-01-28T01:27:57.143Z,10.00
2019-01-28T01:30:37.469Z,12.40
2019-01-28T01:33:04.771Z,11.53
2019-01-28T01:35:32.109Z,18.00
2019-01-28T01:37:59.469Z,9.50
2019-01-28T01:40:26.798Z,10.00
2019-01-28T01:42:54.091Z,17.47
2019-01-28T01:45:21.471Z,15.60
2019-01-28T01:47:48.782Z,13.97
2019-01-28T01:50:16.103Z,14.90
2019-01-28T01:52:43.447Z,14.83
2019-01-28T01:55:30.630Z,13.50
2019-01-28T01:57:58.162Z,14.37
2019-01-28T02:00:25.480Z,7.00
2019-01-28T02:02:52.818Z,9.00
2019-01-28T02:05:26.150Z,10.70
2019-01-28T02:08:35.967Z,14.47
2019-01-28T02:11:03.221Z,15.23
2019-01-28T02:13:30.552Z,10.60
2019-01-28T02:15:57.862Z,18.77
2019-01-28T02:18:25.173Z,15.13
2019-01-28T02:20:52.481Z,11.03
2019-01-28T02:23:19.802Z,11.67
2019-01-28T02:25:47.116Z,14.87
2019-01-28T02:28:14.475Z,17.30
2019-01-28T02:30:41.870Z,13.33
2019-01-28T02:33:09.271Z,10.87
2019-01-28T02:35:36.714Z,18.60
2019-01-28T02:38:04.018Z,13.10
2019-01-28T02:40:31.350Z,13.63
2019-01-28T02:42:58.678Z,11.20
2019-01-28T02:45:26.006Z,16.50
2019-01-28T02:47:53.362Z,17.80
2019-01-28T02:50:20.674Z,16.47
2019-01-28T02:52:48.123Z,14.53
2019-01-28T02:55:16.762Z,9.20
2019-01-28T02:57:44.772Z,12.63
2019-01-28T03:00:17.684Z,11.03
2019-01-28T03:02:44.998Z,9.87
2019-01-28T03:05:18.638Z,10.30
2019-01-28T03:07:46.068Z,11.50
2019-01-28T03:10:15.824Z,14.50
2019-01-28T03:12:43.120Z,6.40
2019-01-28T03:15:10.435Z,15.40
2019-01-28T03:17:37.723Z,15.60
2019-01-28T03:20:06.027Z,8.70
2019-01-28T03:22:33.334Z,11.40
2019-01-28T03:25:00.648Z,8.13
2019-01-28T03:27:27.956Z,14.40
2019-01-28T03:29:55.373Z,13.00
2019-01-28T03:32:22.683Z,13.97
2019-01-28T03:34:50.090Z,19.80
2019-01-28T03:37:17.510Z,14.83
2019-01-28T03:39:44.852Z,14.70
2019-01-28T03:42:12.165Z,12.13
2019-01-28T03:44:39.577Z,24.97
2019-01-28T03:47:06.884Z,9.07
2019-01-28T03:49:34.314Z,21.03
2019-01-28T03:52:01.630Z,14.70
2019-01-28T03:54:28.946Z,14.43
2019-01-28T03:56:56.288Z,16.90
2019-01-28T03:59:23.577Z,20.87
2019-01-28T04:01:52.543Z,20.27
2019-01-28T04:04:19.859Z,12.63
2019-01-28T04:06:47.234Z,15.60
2019-01-28T04:09:46.831Z,13.47
2019-01-28T04:12:41.323Z,10.57
2019-01-28T04:15:09.616Z,8.77
2019-01-28T04:17:36.916Z,12.37
2019-01-28T04:20:04.829Z,17.07
2019-01-28T04:22:32.676Z,11.00
2019-01-28T04:24:59.986Z,15.10
2019-01-28T04:27:27.320Z,15.30
2019-01-28T04:29:54.747Z,17.00
2019-01-28T04:32:22.068Z,20.17
2019-01-28T04:34:49.387Z,17.27
2019-01-28T04:37:16.695Z,13.73
2019-01-28T04:39:44.030Z,20.37
2019-01-28T04:42:31.133Z,16.90
2019-01-28T04:45:16.144Z,15.63
2019-01-28T04:48:11.699Z,12.27
2019-01-28T04:51:00.076Z,14.10
2019-01-28T04:53:32.479Z,9.20
2019-01-28T04:56:30.459Z,8.93
2019-01-28T04:59:32.260Z,22.60
2019-01-28T05:01:59.632Z,16.47
2019-01-28T05:04:27.284Z,12.60
2019-01-28T05:06:54.612Z,9.90
2019-01-28T05:09:22.051Z,14.90
2019-01-28T05:11:49.447Z,11.93
2019-01-28T05:14:16.767Z,11.00
2019-01-28T05:16:44.165Z,10.07
2019-01-28T05:19:11.491Z,15.70
2019-01-28T05:21:38.802Z,13.97
2019-01-28T05:24:39.727Z,14.37
2019-01-28T05:27:17.926Z,9.70
2019-01-28T05:33:52.988Z,17.73
2019-01-28T05:36:26.688Z,14.13
2019-01-28T05:38:53.999Z,18.43
2019-01-28T05:41:21.311Z,9.80
2019-01-28T05:43:48.647Z,14.83
2019-01-28T05:46:15.959Z,20.93
2019-01-28T05:48:43.288Z,11.23
2019-01-28T05:51:10.710Z,13.83
2019-01-28T05:53:38.010Z,14.57
2019-01-28T05:56:25.658Z,15.10
2019-01-28T05:58:53.070Z,12.40
2019-01-28T06:01:20.428Z,15.77
2019-01-28T06:03:47.752Z,14.73
2019-01-28T06:06:15.096Z,19.17
2019-01-28T06:08:42.410Z,13.83
2019-01-28T06:11:09.782Z,18.40
2019-01-28T06:13:37.131Z,19.60
2019-01-28T06:16:04.541Z,13.13
2019-01-28T06:18:31.887Z,11.47
2019-01-28T06:20:59.235Z,8.20
2019-01-28T06:23:26.559Z,8.30
2019-01-28T06:25:53.886Z,10.70
2019-01-28T06:28:21.206Z,8.60
2019-01-28T06:30:48.515Z,8.43
2019-01-28T06:33:15.843Z,13.87
2019-01-28T06:35:43.179Z,11.97
2019-01-28T06:38:10.490Z,13.53
2019-01-28T06:40:37.899Z,16.73
2019-01-28T06:43:05.253Z,9.83
2019-01-28T06:45:32.554Z,16.50
2019-01-28T06:47:59.903Z,17.87
2019-01-28T06:50:27.267Z,14.43
2019-01-28T06:53:38.566Z,10.90
2019-01-28T06:56:26.428Z,11.93
2019-01-28T06:59:17.040Z,8.97
2019-01-28T07:01:45.246Z,16.30
2019-01-28T07:04:32.007Z,12.23
2019-01-28T07:06:59.394Z,15.27
2019-01-28T07:09:26.758Z,10.63
2019-01-28T07:11:54.090Z,15.87
2019-01-28T07:14:21.476Z,11.63
2019-01-28T07:16:48.789Z,10.87
2019-01-28T07:19:16.090Z,5.07
2019-01-28T07:21:43.423Z,5.47
2019-01-28T07:24:10.769Z,7.63
2019-01-28T07:26:38.087Z,6.27
2019-01-28T07:29:05.411Z,9.67
2019-01-28T07:31:32.736Z,12.30
2019-01-28T07:34:00.050Z,15.67
2019-01-28T07:36:27.476Z,10.33
2019-01-28T07:39:40.767Z,14.17
2019-01-28T07:42:08.078Z,12.90
2019-01-28T07:44:35.439Z,13.50
2019-01-28T07:47:02.853Z,19.03
2019-01-28T07:49:30.262Z,14.57
2019-01-28T07:51:57.613Z,13.77
2019-01-28T07:54:24.918Z,14.10
2019-01-28T07:56:52.242Z,10.60
2019-01-28T07:59:19.684Z,13.60
2019-01-28T08:01:47.090Z,10.90
2019-01-28T08:04:14.399Z,10.30
2019-01-28T08:06:41.774Z,13.33
2019-01-28T08:09:09.110Z,10.40
2019-01-28T08:11:36.410Z,16.43
2019-01-28T08:14:05.469Z,11.83
2019-01-28T08:16:32.829Z,10.93
2019-01-28T08:19:00.144Z,11.83
2019-01-28T08:22:06.540Z,10.40
2019-01-28T08:24:33.867Z,8.33
2019-01-28T08:27:01.335Z,11.53
2019-01-28T08:29:28.667Z,9.17
2019-01-28T08:33:20.327Z,11.67
2019-01-28T08:36:03.383Z,8.47
2019-01-28T08:38:30.688Z,7.93
2019-01-28T08:40:58.027Z,9.17
2019-01-28T08:43:25.330Z,14.23
2019-01-28T08:45:52.750Z,12.37
2019-01-28T08:48:20.087Z,12.23
2019-01-28T08:50:47.403Z,16.77
2019-01-28T08:53:14.759Z,9.80
2019-01-28T08:55:42.092Z,11.10
2019-01-28T08:58:09.496Z,11.67
2019-01-28T09:00:39.069Z,9.57
2019-01-28T09:03:06.434Z,5.80
2019-01-28T09:05:33.853Z,12.00
2019-01-28T09:08:01.314Z,7.90
2019-01-28T09:11:36.773Z,10.60
2019-01-28T09:14:04.933Z,12.03
2019-01-28T09:16:32.292Z,9.40
2019-01-28T09:18:59.728Z,8.00
2019-01-28T09:21:27.144Z,9.67
2019-01-28T09:23:54.569Z,12.17
2019-01-28T09:26:21.891Z,12.47
2019-01-28T09:28:49.307Z,10.10
2019-01-28T09:31:16.990Z,10.17
2019-01-28T09:33:44.317Z,10.10
2019-01-28T09:36:11.642Z,10.80
2019-01-28T09:38:39.103Z,11.17
2019-01-28T09:41:06.425Z,16.20
2019-01-28T09:43:33.755Z,10.93
2019-01-28T09:46:46.879Z,10.93
2019-01-28T09:49:14.225Z,12.93
2019-01-28T09:51:41.531Z,12.17
2019-01-28T09:54:08.859Z,11.77
2019-01-28T09:56:36.195Z,7.33
2019-01-28T09:59:03.651Z,8.63
2019-01-28T10:01:30.975Z,9.47
2019-01-28T10:04:20.390Z,9.37
2019-01-28T10:06:47.772Z,16.50
2019-01-28T10:10:19.988Z,9.40
2019-01-28T10:12:47.328Z,11.17
2019-01-28T10:15:16.256Z,12.17
2019-01-28T10:17:43.604Z,10.47
2019-01-28T10:20:15.270Z,9.60
2019-01-28T10:22:42.678Z,11.00
2019-01-28T10:25:10.131Z,7.90
2019-01-28T10:27:37.479Z,14.27
2019-01-28T10:30:06.130Z,14.00
2019-01-28T10:32:36.069Z,12.90
2019-01-28T10:35:03.179Z,10.53
2019-01-28T10:37:30.516Z,9.27
2019-01-28T10:39:57.859Z,8.60
2019-01-28T10:42:25.163Z,9.70
2019-01-28T10:44:52.495Z,11.80
2019-01-28T10:47:19.837Z,10.67
2019-01-28T10:49:47.191Z,12.47
2019-01-28T10:52:14.513Z,10.03
2019-01-28T10:54:41.824Z,9.63
2019-01-28T10:57:09.164Z,5.77
2019-01-28T10:59:36.467Z,10.73
2019-01-28T11:02:03.948Z,8.63
2019-01-28T11:04:31.276Z,8.37
2019-01-28T11:06:58.619Z,10.00
2019-01-28T11:09:25.984Z,10.80
2019-01-28T11:11:53.425Z,8.33
2019-01-28T11:14:20.758Z,7.87
2019-01-28T11:16:48.282Z,8.67
2019-01-28T11:19:15.727Z,8.87
2019-01-28T11:21:43.127Z,11.23
2019-01-28T11:24:35.624Z,12.03
2019-01-28T11:27:13.863Z,6.97
2019-01-28T11:30:37.826Z,6.17
2019-01-28T11:33:18.678Z,10.87
2019-01-28T11:35:46.394Z,8.47
2019-01-28T11:38:41.527Z,5.57
2019-01-28T11:41:08.927Z,5.97
2019-01-28T11:44:48.901Z,12.23
2019-01-28T11:47:52.096Z,6.27
2019-01-28T11:50:26.094Z,7.20
2019-01-28T11:52:53.419Z,6.90
2019-01-28T11:55:20.755Z,6.40
2019-01-28T11:57:48.234Z,8.97
2019-01-28T12:01:15.387Z,7.10
2019-01-28T12:04:00.227Z,7.87
2019-01-28T12:06:27.563Z,11.87
2019-01-28T12:08:54.903Z,8.27
2019-01-28T12:11:22.253Z,10.20
2019-01-28T12:13:49.576Z,10.03
2019-01-28T12:16:16.897Z,10.20
2019-01-28T12:18:44.243Z,12.13
2019-01-28T12:21:11.577Z,6.93
2019-01-28T12:23:38.907Z,8.20
2019-01-28T12:26:06.257Z,6.30
2019-01-28T12:28:33.563Z,6.53
2019-01-28T12:31:00.911Z,10.03
2019-01-28T12:33:28.263Z,10.07
2019-01-28T12:35:55.580Z,5.93
2019-01-28T12:38:22.900Z,8.50
2019-01-28T12:40:50.233Z,6.23
2019-01-28T12:43:17.555Z,7.90
2019-01-28T12:45:44.876Z,3.53
2019-01-28T12:48:12.210Z,5.90
2019-01-28T12:50:39.537Z,3.03
2019-01-28T12:53:49.403Z,5.93
2019-01-28T12:56:16.856Z,4.40
2019-01-28T12:58:44.171Z,3.90
2019-01-28T13:01:11.658Z,4.83
2019-01-28T13:03:39.090Z,3.10
2019-01-28T13:06:06.512Z,4.07
2019-01-28T13:08:33.941Z,4.53
2019-01-28T13:11:01.425Z,2.90
2019-01-28T13:13:28.890Z,2.73
2019-01-28T13:15:56.211Z,4.23
2019-01-28T13:18:23.551Z,2.77
2019-01-28T13:20:50.899Z,1.03
2019-01-28T13:23:18.244Z,1.60
2019-01-28T13:25:45.595Z,4.07
2019-01-28T13:28:12.931Z,2.80
2019-01-28T13:31:23.769Z,5.57
2019-01-28T13:33:53.078Z,5.80
2019-01-28T13:36:20.410Z,5.90
2019-01-28T13:38:47.830Z,5.20
2019-01-28T13:41:15.296Z,5.07
2019-01-28T13:43:42.617Z,8.67
2019-01-28T13:46:09.966Z,6.17
2019-01-28T13:48:37.320Z,11.87
2019-01-28T13:51:06.371Z,6.90
2019-01-28T13:53:33.971Z,4.27
2019-01-28T13:56:01.632Z,3.87
2019-01-28T13:58:28.954Z,3.87
2019-01-28T14:00:56.392Z,3.80
2019-01-28T14:03:23.707Z,4.73
2019-01-28T14:05:51.010Z,5.27
2019-01-28T14:08:18.369Z,2.77
2019-01-28T14:10:45.696Z,6.47
2019-01-28T14:13:13.035Z,8.33
2019-01-28T14:15:40.449Z,5.37
2019-01-28T14:18:09.877Z,13.50
2019-01-28T14:20:37.385Z,9.57
2019-01-28T14:23:04.831Z,9.33
2019-01-28T14:25:32.155Z,9.87
2019-01-28T14:27:59.479Z,5.40
2019-01-28T14:30:47.048Z,7.00
2019-01-28T14:33:14.403Z,9.90
2019-01-28T14:35:43.391Z,9.93
2019-01-28T14:38:12.081Z,6.33
2019-01-28T14:40:40.569Z,10.93
2019-01-28T14:43:07.923Z,9.63
2019-01-28T14:45:35.362Z,6.30
2019-01-28T14:48:02.832Z,8.37
2019-01-28T14:50:31.105Z,14.60
2019-01-28T14:52:58.559Z,9.27
2019-01-28T14:55:25.901Z,3.93
2019-01-28T14:57:53.222Z,5.33
2019-01-28T15:00:23.548Z,11.53
2019-01-28T15:02:50.955Z,9.63
2019-01-28T15:05:18.285Z,9.87
2019-01-28T15:07:45.635Z,8.10
2019-01-28T15:10:14.337Z,8.77
2019-01-28T15:12:44.347Z,11.20
2019-01-28T15:15:13.487Z,13.57
2019-01-28T15:17:40.825Z,6.73
2019-01-28T15:20:08.360Z,10.30
2019-01-28T15:22:35.736Z,7.90
2019-01-28T15:25:03.197Z,7.70
2019-01-28T15:27:30.537Z,9.03
2019-01-28T15:29:57.945Z,7.27
2019-01-28T15:32:25.300Z,11.53
2019-01-28T15:35:07.581Z,8.07
2019-01-28T15:37:35.568Z,4.07
2019-01-28T15:40:02.933Z,6.53
2019-01-28T15:42:30.283Z,9.93
2019-01-28T15:44:57.704Z,7.03
2019-01-28T15:47:25.003Z,10.47
2019-01-28T15:49:52.328Z,6.57
2019-01-28T15:52:19.740Z,8.97
2019-01-28T15:54:47.051Z,4.77
2019-01-28T15:57:14.754Z,5.07
2019-01-28T15:59:42.073Z,6.43
2019-01-28T16:02:09.393Z,10.63
2019-01-28T16:04:36.735Z,10.20
2019-01-28T16:07:38.409Z,8.87
2019-01-28T16:10:12.028Z,6.97
2019-01-28T16:12:39.390Z,11.40
2019-01-28T16:15:11.739Z,5.83
2019-01-28T16:17:39.132Z,8.03
2019-01-28T16:20:06.769Z,9.67
2019-01-28T16:22:34.195Z,11.43
2019-01-28T16:25:01.664Z,13.60
2019-01-28T16:27:29.068Z,13.77
2019-01-28T16:29:56.384Z,6.47
2019-01-28T16:32:23.719Z,13.73
2019-01-28T16:34:51.039Z,8.70
2019-01-28T16:37:18.372Z,11.80
2019-01-28T16:39:45.697Z,6.13
2019-01-28T16:42:13.019Z,13.23
2019-01-28T16:44:40.716Z,6.67
2019-01-28T16:47:08.077Z,11.13
2019-01-28T16:49:35.426Z,9.70
2019-01-28T16:52:02.792Z,8.83
2019-01-28T16:54:30.147Z,6.87
2019-01-28T16:56:57.506Z,6.90
2019-01-28T16:59:24.926Z,8.40
2019-01-28T17:01:52.272Z,12.40
2019-01-28T17:04:19.731Z,8.30
2019-01-28T17:06:47.078Z,5.27
2019-01-28T17:09:14.407Z,7.33
2019-01-28T17:11:41.795Z,1.50
2019-01-28T17:14:09.107Z,7.17
2019-01-28T17:16:36.540Z,9.30
2019-01-28T17:19:03.859Z,2.43
2019-01-28T17:21:31.202Z,3.93
2019-01-28T17:23:58.662Z,3.80
2019-01-28T17:26:25.979Z,5.73
2019-01-28T17:28:53.318Z,4.53
2019-01-28T17:31:20.759Z,3.60
2019-01-28T17:33:48.088Z,5.67
2019-01-28T17:36:15.455Z,4.33
2019-01-28T17:38:42.879Z,5.37
2019-01-28T17:41:10.311Z,6.43
2019-01-28T17:43:37.731Z,8.00
2019-01-28T17:46:05.091Z,11.03
2019-01-28T17:48:32.438Z,8.07
2019-01-28T17:50:59.795Z,7.40
2019-01-28T17:53:27.112Z,9.03
2019-01-28T17:55:54.436Z,6.87
2019-01-28T17:58:21.838Z,8.97
2019-01-28T18:00:58.873Z,7.63
2019-01-28T18:03:26.371Z,6.10
2019-01-28T18:05:53.720Z,9.93
2019-01-28T18:08:44.441Z,5.73
2019-01-28T18:11:12.743Z,7.93
2019-01-28T18:13:59.940Z,10.53
2019-01-28T18:16:27.411Z,8.60
2019-01-28T18:18:54.828Z,9.13
2019-01-28T18:21:23.436Z,8.57
2019-01-28T18:23:51.682Z,6.70
2019-01-28T18:26:19.111Z,10.23
2019-01-28T18:28:46.459Z,6.53
2019-01-28T18:31:13.855Z,11.13
2019-01-28T18:33:41.261Z,7.33
2019-01-28T18:36:08.619Z,7.10
2019-01-28T18:38:35.962Z,9.30
2019-01-28T18:41:03.583Z,4.63
2019-01-28T18:43:30.916Z,9.70
2019-01-28T18:46:18.133Z,5.83
2019-01-28T18:48:45.466Z,8.47
2019-01-28T18:51:12.929Z,5.93
2019-01-28T18:53:40.354Z,5.63
2019-01-28T18:56:07.705Z,7.43
2019-01-28T18:58:59.350Z,7.77
2019-01-28T19:01:26.707Z,10.53
2019-01-28T19:03:54.062Z,10.53
2019-01-28T19:06:49.979Z,3.87
2019-01-28T19:09:36.826Z,9.13
2019-01-28T19:12:23.639Z,15.17
2019-01-28T19:15:17.123Z,8.87
2019-01-28T19:18:09.871Z,8.47
2019-01-28T19:20:49.234Z,10.10
2019-01-28T19:23:16.669Z,11.93
2019-01-28T19:25:43.991Z,23.10
2019-01-28T19:28:11.315Z,28.63
2019-01-28T19:30:38.658Z,19.50
2019-01-28T19:33:05.984Z,11.03
2019-01-28T19:35:33.395Z,5.80
2019-01-28T19:38:00.815Z,9.37
2019-01-28T19:40:28.118Z,13.17
2019-01-28T19:42:55.501Z,6.40
2019-01-28T19:45:22.892Z,9.80
2019-01-28T19:48:19.255Z,6.90
2019-01-28T19:50:46.616Z,9.20
2019-01-28T19:53:13.965Z,11.00
2019-01-28T19:55:41.386Z,7.33
2019-01-28T19:58:08.709Z,14.10
2019-01-28T20:00:36.057Z,10.87
2019-01-28T20:03:05.703Z,10.40
2019-01-28T20:05:54.239Z,9.70
2019-01-28T20:08:41.129Z,4.97
2019-01-28T20:11:08.443Z,9.43
2019-01-28T20:13:35.830Z,7.73
2019-01-28T20:16:03.219Z,12.27
2019-01-28T20:18:30.604Z,8.33
2019-01-28T20:20:57.958Z,8.23
2019-01-28T20:23:26.886Z,12.40
2019-01-28T20:25:54.524Z,8.93
2019-01-28T20:28:21.855Z,5.67
2019-01-28T20:30:49.265Z,12.23
2019-01-28T20:33:16.614Z,9.17
2019-01-28T20:35:43.945Z,6.50
2019-01-28T20:38:15.803Z,3.63
2019-01-28T20:40:40.657Z,6.70
2019-01-28T20:43:08.225Z,5.87
2019-01-28T20:45:35.673Z,5.63
2019-01-28T20:48:03.105Z,8.57
2019-01-28T20:50:30.578Z,7.67
2019-01-28T20:52:58.034Z,10.40
2019-01-28T20:55:25.472Z,6.27
2019-01-28T20:57:52.868Z,6.93
2019-01-28T21:00:22.417Z,7.60
2019-01-28T21:02:49.925Z,10.53
2019-01-28T21:05:17.856Z,10.30
2019-01-28T21:07:45.395Z,9.17
2019-01-28T21:10:14.052Z,7.20
2019-01-28T21:12:41.497Z,5.47
2019-01-28T21:15:10.808Z,5.63
2019-01-28T21:17:38.267Z,9.70
2019-01-28T21:20:08.083Z,9.47
2019-01-28T21:22:35.407Z,8.00
2019-01-28T21:25:02.866Z,17.00
2019-01-28T21:27:30.292Z,10.63
2019-01-28T21:29:57.814Z,7.70
2019-01-28T21:32:25.208Z,13.13
2019-01-28T21:34:52.657Z,10.90
2019-01-28T21:37:32.352Z,8.50
2019-01-28T21:39:59.735Z,9.30
2019-01-28T21:42:27.092Z,9.97
2019-01-28T21:44:54.592Z,11.87
2019-01-28T21:47:21.969Z,6.63
2019-01-28T21:49:49.318Z,4.50
2019-01-28T21:52:16.762Z,9.50
2019-01-28T21:54:44.209Z,5.27
2019-01-28T21:57:11.536Z,6.53
2019-01-28T21:59:38.960Z,4.90
2019-01-28T22:02:06.402Z,4.10
2019-01-28T22:04:36.053Z,9.67
2019-01-28T22:07:03.504Z,6.33
2019-01-28T22:09:47.016Z,2.97
2019-01-28T22:12:14.391Z,8.50
2019-01-28T22:14:41.852Z,5.93
2019-01-28T22:17:09.271Z,7.63
2019-01-28T22:19:36.615Z,6.00
2019-01-28T22:22:04.468Z,9.87
2019-01-28T22:24:31.854Z,8.13
2019-01-28T22:26:59.235Z,4.63
2019-01-28T22:29:26.553Z,10.93
2019-01-28T22:31:53.852Z,5.53
2019-01-28T22:34:21.216Z,8.67
2019-01-28T22:36:48.636Z,11.30
2019-01-28T22:39:15.963Z,7.50
2019-01-28T22:41:43.344Z,11.50
2019-01-28T22:44:10.796Z,5.30
2019-01-28T22:46:38.187Z,10.97
2019-01-28T22:49:05.537Z,6.63
2019-01-28T22:51:32.975Z,7.47
2019-01-28T22:54:00.307Z,7.23
2019-01-28T22:56:27.675Z,12.53
2019-01-28T22:58:54.999Z,6.93
2019-01-28T23:01:27.682Z,6.67
2019-01-28T23:04:43.201Z,17.27
2019-01-28T23:07:15.399Z,12.47
2019-01-28T23:09:42.729Z,11.83
2019-01-28T23:12:10.146Z,10.43
2019-01-28T23:14:37.563Z,10.87
2019-01-28T23:17:04.894Z,9.23
2019-01-28T23:19:32.229Z,11.33
2019-01-28T23:21:59.674Z,7.03
2019-01-28T23:24:27.129Z,8.37
2019-01-28T23:26:54.452Z,11.63
2019-01-28T23:30:00.339Z,9.77
2019-01-28T23:32:55.815Z,11.63
2019-01-28T23:35:23.150Z,7.13
2019-01-28T23:37:50.458Z,8.70
2019-01-28T23:40:17.803Z,10.63
2019-01-28T23:42:45.821Z,7.90
2019-01-28T23:45:13.171Z,10.53
2019-01-28T23:47:40.599Z,10.73
2019-01-28T23:50:07.947Z,10.30
2019-01-28T23:53:16.139Z,6.90
2019-01-28T23:55:43.502Z,6.70
2019-01-28T23:58:11.418Z,9.93
